createdAt,value
2022-09-10T00:01:37.217Z,1.85
2022-09-10T00:04:10.495Z,2.03
2022-09-10T00:06:38.795Z,1.88
2022-09-10T00:09:07.406Z,2.40
2022-09-10T00:11:35.172Z,1.67
2022-09-10T00:14:05.593Z,1.48
2022-09-10T00:16:33.898Z,1.48
2022-09-10T00:19:02.198Z,1.60
2022-09-10T00:21:30.102Z,1.50
2022-09-10T00:23:57.369Z,1.27
2022-09-10T00:26:45.688Z,1.60
2022-09-10T00:29:15.916Z,1.40
2022-09-10T00:31:43.490Z,1.98
2022-09-10T00:34:12.638Z,1.50
2022-09-10T00:36:43.900Z,1.83
2022-09-10T00:39:16.852Z,1.85
2022-09-10T00:41:47.626Z,1.58
2022-09-10T00:44:37.592Z,1.80
2022-09-10T00:47:15.568Z,1.85
2022-09-10T00:49:55.760Z,1.50
2022-09-10T00:52:23.930Z,1.63
2022-09-10T00:54:51.546Z,2.10
2022-09-10T00:57:22.948Z,1.30
2022-09-10T00:59:59.290Z,1.30
2022-09-10T01:02:26.435Z,1.65
2022-09-10T01:04:55.892Z,1.02
2022-09-10T01:07:29.052Z,0.98
2022-09-10T01:09:59.990Z,1.00
2022-09-10T01:13:08.940Z,1.00
2022-09-10T01:16:09.824Z,1.00
2022-09-10T01:19:02.647Z,0.77
2022-09-10T01:21:55.514Z,0.80
2022-09-10T01:24:54.819Z,1.13
2022-09-10T01:27:42.546Z,0.80
2022-09-10T01:30:24.465Z,0.90
2022-09-10T01:33:17.164Z,0.90
2022-09-10T01:36:02.632Z,0.80
2022-09-10T01:38:35.620Z,0.90
2022-09-10T01:41:30.258Z,0.90
2022-09-10T01:44:31.583Z,0.90
2022-09-10T01:47:14.666Z,1.20
2022-09-10T01:50:26.608Z,1.27
2022-09-10T01:53:39.830Z,0.85
2022-09-10T01:56:35.455Z,1.20
2022-09-10T02:00:00.740Z,1.00
2022-09-10T02:02:36.450Z,0.95
2022-09-10T02:05:06.932Z,1.10
2022-09-10T02:07:36.920Z,1.67
2022-09-10T02:10:09.574Z,1.30
2022-09-10T02:12:43.513Z,1.00
2022-09-10T02:15:36.397Z,1.25
2022-09-10T02:18:16.855Z,1.88
2022-09-10T02:20:45.578Z,1.10
2022-09-10T02:23:19.206Z,0.90
2022-09-10T02:25:49.177Z,1.00
2022-09-10T02:28:17.101Z,0.93
2022-09-10T02:30:45.290Z,0.80
2022-09-10T02:33:14.430Z,1.30
2022-09-10T02:35:47.736Z,1.20
2022-09-10T02:38:16.451Z,1.10
2022-09-10T02:40:43.687Z,1.10
2022-09-10T02:43:10.708Z,1.17
2022-09-10T02:45:40.086Z,1.25
2022-09-10T02:48:07.794Z,0.75
2022-09-10T02:50:39.064Z,1.00
2022-09-10T02:53:06.906Z,1.20
2022-09-10T02:55:34.029Z,1.40
2022-09-10T02:58:02.304Z,1.60
2022-09-10T03:00:31.209Z,1.35
2022-09-10T03:03:02.826Z,1.48
2022-09-10T03:05:30.621Z,0.98
2022-09-10T03:07:57.802Z,1.27
2022-09-10T03:10:25.189Z,1.20
2022-09-10T03:12:54.046Z,1.38
2022-09-10T03:15:23.047Z,1.70
2022-09-10T03:17:53.222Z,1.40
2022-09-10T03:20:24.691Z,1.50
2022-09-10T03:22:52.992Z,1.00
2022-09-10T03:25:20.104Z,1.13
2022-09-10T03:27:47.117Z,1.58
2022-09-10T03:30:14.234Z,1.35
2022-09-10T03:32:44.471Z,1.35
2022-09-10T03:37:41.097Z,1.40
2022-09-10T03:40:10.773Z,1.33
2022-09-10T03:42:38.674Z,1.27
2022-09-10T03:45:06.887Z,1.70
2022-09-10T03:47:34.040Z,1.65
2022-09-10T03:50:02.160Z,1.70
2022-09-10T03:52:32.158Z,1.50
2022-09-10T03:54:59.168Z,1.70
2022-09-10T03:57:30.427Z,1.58
2022-09-10T03:59:59.685Z,1.80
2022-09-10T04:02:27.048Z,1.60
2022-09-10T04:04:54.203Z,1.50
2022-09-10T04:07:21.284Z,1.63
2022-09-10T04:09:49.988Z,1.75
2022-09-10T04:12:17.478Z,1.88
2022-09-10T04:14:46.671Z,1.80
2022-09-10T04:17:15.127Z,1.50
2022-09-10T04:19:43.628Z,1.88
2022-09-10T04:22:11.285Z,1.85
2022-09-10T04:24:40.742Z,2.00
2022-09-10T04:27:07.686Z,2.00
2022-09-10T04:29:34.881Z,1.70
2022-09-10T04:32:03.303Z,1.90
2022-09-10T04:34:32.288Z,2.25
2022-09-10T04:37:03.020Z,2.30
2022-09-10T04:39:32.575Z,2.10
2022-09-10T04:41:59.954Z,2.13
2022-09-10T04:44:27.853Z,2.28
2022-09-10T04:46:56.003Z,2.00
2022-09-10T04:49:22.901Z,1.90
2022-09-10T04:51:50.296Z,1.90
2022-09-10T04:54:19.965Z,2.15
2022-09-10T04:56:47.599Z,1.90
2022-09-10T04:59:14.713Z,2.08
2022-09-10T05:01:43.801Z,1.88
2022-09-10T05:04:10.903Z,1.70
2022-09-10T05:06:38.547Z,1.75
2022-09-10T05:09:09.292Z,1.80
2022-09-10T05:11:37.219Z,2.03
2022-09-10T05:14:04.605Z,1.95
2022-09-10T05:16:32.942Z,1.73
2022-09-10T05:19:00.108Z,1.77
2022-09-10T05:21:29.377Z,2.20
2022-09-10T05:23:56.462Z,2.17
2022-09-10T05:26:25.768Z,1.70
2022-09-10T05:28:53.535Z,1.70
2022-09-10T05:31:21.555Z,1.42
2022-09-10T05:33:49.426Z,1.70
2022-09-10T05:36:16.448Z,1.65
2022-09-10T05:38:45.749Z,2.00
2022-09-10T05:41:13.345Z,1.73
2022-09-10T05:43:45.026Z,1.70
2022-09-10T05:46:15.723Z,1.52
2022-09-10T05:48:47.168Z,1.77
2022-09-10T05:51:14.361Z,2.05
2022-09-10T05:53:43.075Z,1.30
2022-09-10T05:56:11.645Z,1.90
2022-09-10T05:58:39.432Z,1.25
2022-09-10T06:01:07.930Z,1.85
2022-09-10T06:03:35.050Z,1.67
2022-09-10T06:06:02.714Z,0.90
2022-09-10T06:08:33.886Z,1.10
2022-09-10T06:13:44.428Z,0.85
2022-09-10T06:16:13.992Z,0.98
2022-09-10T06:18:44.155Z,0.70
2022-09-10T06:21:19.550Z,0.80
2022-09-10T06:23:54.639Z,0.80
2022-09-10T06:26:29.837Z,0.70
2022-09-10T06:29:00.705Z,0.60
2022-09-10T06:31:29.623Z,0.93
2022-09-10T06:33:57.141Z,0.60
2022-09-10T06:36:29.795Z,0.80
2022-09-10T06:38:58.014Z,0.70
2022-09-10T06:41:25.591Z,0.57
2022-09-10T06:43:58.652Z,0.63
2022-09-10T06:49:23.666Z,0.70
2022-09-10T06:51:51.237Z,0.70
2022-09-10T06:54:19.026Z,0.52
2022-09-10T06:56:48.805Z,0.50
2022-09-10T06:59:17.310Z,0.70
2022-09-10T07:01:48.163Z,0.60
2022-09-10T07:04:17.281Z,0.65
2022-09-10T07:06:45.963Z,0.57
2022-09-10T07:09:16.119Z,0.60
2022-09-10T07:11:54.221Z,0.57
2022-09-10T07:14:37.248Z,0.60
2022-09-10T07:17:21.897Z,0.30
2022-09-10T07:19:51.614Z,0.70
2022-09-10T07:22:29.038Z,0.65
2022-09-10T07:24:57.173Z,0.60
2022-09-10T07:27:30.221Z,0.63
2022-09-10T07:29:58.353Z,0.70
2022-09-10T07:32:26.334Z,0.57
2022-09-10T07:35:01.735Z,0.70
2022-09-10T07:37:30.362Z,0.60
2022-09-10T07:40:00.569Z,0.55
2022-09-10T07:42:29.318Z,0.60
2022-09-10T07:44:56.904Z,0.70
2022-09-10T07:47:25.378Z,1.00
2022-09-10T07:50:12.495Z,0.82
2022-09-10T07:53:04.361Z,0.63
2022-09-10T07:56:42.599Z,0.80
2022-09-10T07:59:19.351Z,0.80
2022-09-10T08:02:15.041Z,0.70
2022-09-10T08:06:00.239Z,0.85
2022-09-10T08:08:56.960Z,0.60
2022-09-10T08:11:27.795Z,0.90
2022-09-10T08:13:56.838Z,0.50
2022-09-10T08:16:44.419Z,0.80
2022-09-10T08:19:14.929Z,0.57
2022-09-10T08:21:42.124Z,0.63
2022-09-10T08:24:11.585Z,0.55
2022-09-10T08:26:41.605Z,0.60
2022-09-10T08:29:08.958Z,0.90
2022-09-10T08:31:44.552Z,0.82
2022-09-10T08:34:33.162Z,0.73
2022-09-10T08:37:06.701Z,0.70
2022-09-10T08:39:38.313Z,0.80
2022-09-10T08:42:40.230Z,0.70
2022-09-10T08:45:28.184Z,0.50
2022-09-10T08:48:18.901Z,0.70
2022-09-10T08:51:20.579Z,0.90
2022-09-10T08:54:17.349Z,1.00
2022-09-10T08:57:03.247Z,0.70
2022-09-10T08:59:45.812Z,0.70
2022-09-10T09:02:53.508Z,1.00
2022-09-10T09:05:31.074Z,0.57
2022-09-10T09:07:59.606Z,0.60
2022-09-10T09:10:52.576Z,0.73
2022-09-10T09:14:02.410Z,0.63
2022-09-10T09:17:02.365Z,0.70
2022-09-10T09:20:24.098Z,0.70
2022-09-10T09:24:11.688Z,0.50
2022-09-10T09:27:18.908Z,1.33
2022-09-10T09:30:19.551Z,0.77
2022-09-10T09:33:16.802Z,0.50
2022-09-10T09:36:05.691Z,0.50
2022-09-10T09:38:54.171Z,0.70
2022-09-10T09:42:08.646Z,0.75
2022-09-10T09:48:02.922Z,0.90
2022-09-10T09:50:38.783Z,0.90
2022-09-10T09:53:06.034Z,0.70
2022-09-10T09:55:43.670Z,0.75
2022-09-10T09:58:29.679Z,0.80
2022-09-10T10:01:03.598Z,0.70
2022-09-10T10:03:48.423Z,0.52
2022-09-10T10:06:28.879Z,0.55
2022-09-10T10:12:29.445Z,0.60
2022-09-10T10:15:30.754Z,0.80
2022-09-10T10:18:33.080Z,0.50
2022-09-10T10:21:42.095Z,0.50
2022-09-10T10:24:35.518Z,0.80
2022-09-10T10:27:41.324Z,0.60
2022-09-10T10:30:20.378Z,0.82
2022-09-10T10:33:18.153Z,0.70
2022-09-10T10:37:05.303Z,0.55
2022-09-10T10:40:08.144Z,0.60
2022-09-10T10:46:22.634Z,0.63
2022-09-10T10:53:43.094Z,0.50
2022-09-10T10:57:02.492Z,0.60
2022-09-10T11:00:10.325Z,0.47
2022-09-10T11:03:08.445Z,0.93
2022-09-10T11:05:53.161Z,0.73
2022-09-10T11:08:39.922Z,0.60
2022-09-10T11:11:20.882Z,0.57
2022-09-10T11:14:01.750Z,0.55
2022-09-10T11:16:42.561Z,0.75
2022-09-10T11:19:19.812Z,0.60
2022-09-10T11:22:04.142Z,0.52
2022-09-10T11:24:45.819Z,0.80
2022-09-10T11:27:23.589Z,0.50
2022-09-10T11:30:00.328Z,0.60
2022-09-10T11:32:53.427Z,0.60
2022-09-10T11:36:00.188Z,0.80
2022-09-10T11:38:54.937Z,0.77
2022-09-10T11:41:27.877Z,0.85
2022-09-10T11:44:15.268Z,0.70
2022-09-10T11:47:09.173Z,0.85
2022-09-10T11:49:58.165Z,0.75
2022-09-10T11:52:28.459Z,0.68
2022-09-10T11:54:58.317Z,0.60
2022-09-10T11:58:06.604Z,0.32
2022-09-10T12:00:59.409Z,0.65
2022-09-10T12:04:14.932Z,0.70
2022-09-10T12:07:08.993Z,0.80
2022-09-10T12:10:15.483Z,0.70
2022-09-10T12:12:51.442Z,0.88
2022-09-10T12:15:26.480Z,0.70
2022-09-10T12:18:14.399Z,0.80
2022-09-10T12:20:51.466Z,0.60
2022-09-10T12:23:29.818Z,0.90
2022-09-10T12:26:13.069Z,0.73
2022-09-10T12:28:42.846Z,0.77
2022-09-10T12:31:12.613Z,1.00
2022-09-10T12:33:43.517Z,0.60
2022-09-10T12:36:37.494Z,0.90
2022-09-10T12:39:27.647Z,1.00
2022-09-10T12:42:02.107Z,0.60
2022-09-10T12:44:35.097Z,0.70
2022-09-10T12:47:14.235Z,0.80
2022-09-10T12:50:01.192Z,0.82
2022-09-10T12:52:50.918Z,0.60
2022-09-10T12:55:51.416Z,0.50
2022-09-10T12:58:56.617Z,0.50
2022-09-10T13:01:40.425Z,0.47
2022-09-10T13:04:28.458Z,0.90
2022-09-10T13:07:25.196Z,0.63
2022-09-10T13:10:22.009Z,0.38
2022-09-10T13:13:18.196Z,0.60
2022-09-10T13:15:53.182Z,0.75
2022-09-10T13:18:28.547Z,0.63
2022-09-10T13:20:56.373Z,0.60
2022-09-10T13:23:50.616Z,0.50
2022-09-10T13:26:37.405Z,0.55
2022-09-10T13:29:26.434Z,0.70
2022-09-10T13:32:51.760Z,0.70
2022-09-10T13:35:21.875Z,0.70
2022-09-10T13:38:18.498Z,0.50
2022-09-10T13:41:16.938Z,0.60
2022-09-10T13:44:25.617Z,0.45
2022-09-10T13:46:57.415Z,0.50
2022-09-10T13:52:05.368Z,0.30
2022-09-10T13:54:55.003Z,0.50
2022-09-10T13:57:29.850Z,0.45
2022-09-10T14:00:12.720Z,0.40
2022-09-10T14:02:44.481Z,0.20
2022-09-10T14:05:40.875Z,0.40
2022-09-10T14:08:17.925Z,0.43
2022-09-10T14:11:25.287Z,0.50
2022-09-10T14:14:12.731Z,0.52
2022-09-10T14:17:02.499Z,0.40
2022-09-10T14:19:49.350Z,0.50
2022-09-10T14:22:22.326Z,0.52
2022-09-10T14:25:00.825Z,0.63
2022-09-10T14:27:42.176Z,0.98
2022-09-10T14:30:30.703Z,0.77
2022-09-10T14:33:29.417Z,0.60
2022-09-10T14:35:58.768Z,0.80
2022-09-10T14:38:41.149Z,0.80
2022-09-10T14:41:30.033Z,0.70
2022-09-10T14:44:28.288Z,0.40
2022-09-10T14:47:14.831Z,0.63
2022-09-10T14:49:44.553Z,0.40
2022-09-10T14:52:22.409Z,0.60
2022-09-10T14:54:49.447Z,0.63
2022-09-10T14:57:19.536Z,0.50
2022-09-10T14:59:47.766Z,0.40
2022-09-10T15:02:24.600Z,0.80
2022-09-10T15:04:51.911Z,0.70
2022-09-10T15:07:23.501Z,0.70
2022-09-10T15:09:53.474Z,0.60
2022-09-10T15:12:31.370Z,0.70
2022-09-10T15:15:17.723Z,0.80
2022-09-10T15:17:56.138Z,0.70
2022-09-10T15:20:35.387Z,1.00
2022-09-10T15:23:02.863Z,0.98
2022-09-10T15:25:57.080Z,0.90
2022-09-10T15:28:24.147Z,0.70
2022-09-10T15:31:05.078Z,0.75
2022-09-10T15:33:33.627Z,0.80
2022-09-10T15:36:01.453Z,0.70
2022-09-10T15:38:28.388Z,0.93
2022-09-10T15:41:13.870Z,0.82
2022-09-10T15:43:43.487Z,0.68
2022-09-10T15:46:12.866Z,0.88
2022-09-10T15:48:53.800Z,0.90
2022-09-10T15:51:23.624Z,1.00
2022-09-10T15:53:54.377Z,0.60
2022-09-10T15:56:26.550Z,0.43
2022-09-10T15:58:57.326Z,0.52
2022-09-10T16:01:28.867Z,0.50
2022-09-10T16:03:59.227Z,0.60
2022-09-10T16:06:27.694Z,0.55
2022-09-10T16:09:00.887Z,0.80
2022-09-10T16:11:31.513Z,0.75
2022-09-10T16:14:04.519Z,0.60
2022-09-10T16:16:33.987Z,0.85
2022-09-10T16:19:01.021Z,0.73
2022-09-10T16:21:36.262Z,0.93
2022-09-10T16:24:05.258Z,0.93
2022-09-10T16:26:39.812Z,0.90
2022-09-10T16:29:24.084Z,0.70
2022-09-10T16:31:52.044Z,0.82
2022-09-10T16:34:22.798Z,1.30
2022-09-10T16:36:50.888Z,0.90
2022-09-10T16:39:19.574Z,0.90
2022-09-10T16:41:49.511Z,0.85
2022-09-10T16:44:18.771Z,0.95
2022-09-10T16:46:47.105Z,1.08
2022-09-10T16:49:18.311Z,1.20
2022-09-10T16:51:47.737Z,0.98
2022-09-10T16:54:19.278Z,1.20
2022-09-10T16:56:49.196Z,1.23
2022-09-10T16:59:22.231Z,0.90
2022-09-10T17:01:51.903Z,1.10
2022-09-10T17:04:29.856Z,1.40
2022-09-10T17:07:00.407Z,1.35
2022-09-10T17:09:27.631Z,1.25
2022-09-10T17:11:55.238Z,1.38
2022-09-10T17:14:22.366Z,1.40
2022-09-10T17:16:52.189Z,1.20
2022-09-10T17:19:23.505Z,1.33
2022-09-10T17:21:55.552Z,1.25
2022-09-10T17:24:25.828Z,1.30
2022-09-10T17:26:55.246Z,1.30
2022-09-10T17:29:25.521Z,1.20
2022-09-10T17:32:02.439Z,1.15
2022-09-10T17:34:36.892Z,1.30
2022-09-10T17:37:18.909Z,1.10
2022-09-10T17:39:51.034Z,1.23
2022-09-10T17:42:19.280Z,1.20
2022-09-10T17:44:52.004Z,1.45
2022-09-10T17:47:39.939Z,1.85
2022-09-10T17:50:08.363Z,2.25
2022-09-10T17:52:35.614Z,1.80
2022-09-10T17:55:02.862Z,2.03
2022-09-10T17:57:30.385Z,1.90
2022-09-10T18:00:00.315Z,2.10
2022-09-10T18:02:28.920Z,2.53
2022-09-10T18:04:56.271Z,2.45
2022-09-10T18:07:33.452Z,3.13
2022-09-10T18:10:26.760Z,3.95
2022-09-10T18:13:21.527Z,4.28
2022-09-10T18:15:54.109Z,3.08
2022-09-10T18:18:53.962Z,3.13
2022-09-10T18:25:08.555Z,3.10
2022-09-10T18:27:43.534Z,3.08
2022-09-10T18:30:31.639Z,3.17
2022-09-10T18:33:24.385Z,3.50
2022-09-10T18:38:35.709Z,3.28
2022-09-10T18:41:33.134Z,3.25
2022-09-10T18:44:07.653Z,3.50
2022-09-10T18:47:00.945Z,3.00
2022-09-10T18:49:45.943Z,2.90
2022-09-10T18:52:16.283Z,2.90
2022-09-10T18:54:57.113Z,3.33
2022-09-10T18:57:29.972Z,3.30
2022-09-10T19:03:46.985Z,2.65
2022-09-10T19:06:55.754Z,2.72
2022-09-10T19:10:07.786Z,2.55
2022-09-10T19:12:40.306Z,2.40
2022-09-10T19:17:51.533Z,2.45
2022-09-10T19:20:23.582Z,2.60
2022-09-10T19:22:51.414Z,2.80
2022-09-10T19:25:33.896Z,3.00
2022-09-10T19:28:07.488Z,3.25
2022-09-10T19:30:40.401Z,3.40
2022-09-10T19:33:07.364Z,2.72
2022-09-10T19:35:36.144Z,3.20
2022-09-10T19:38:15.797Z,2.70
2022-09-10T19:40:50.762Z,3.67
2022-09-10T19:43:17.978Z,4.85
2022-09-10T19:45:45.377Z,5.68
2022-09-10T19:48:12.322Z,7.10
2022-09-10T19:50:40.848Z,8.73
2022-09-10T19:53:10.269Z,5.70
2022-09-10T19:55:37.701Z,6.28
2022-09-10T19:58:05.843Z,3.20
2022-09-10T20:00:46.817Z,3.00
2022-09-10T20:03:24.201Z,3.35
2022-09-10T20:06:10.452Z,4.78
2022-09-10T20:09:28.523Z,2.90
2022-09-10T20:12:08.425Z,2.53
2022-09-10T20:14:46.240Z,2.10
2022-09-10T20:17:20.881Z,2.03
2022-09-10T20:19:58.210Z,2.05
2022-09-10T20:22:45.919Z,1.60
2022-09-10T20:25:31.075Z,2.15
2022-09-10T20:28:05.286Z,1.42
2022-09-10T20:30:42.999Z,1.67
2022-09-10T20:36:16.368Z,1.63
2022-09-10T20:38:56.124Z,2.13
2022-09-10T20:41:24.735Z,2.03
2022-09-10T20:44:00.282Z,1.58
2022-09-10T20:49:22.437Z,1.30
2022-09-10T20:51:49.582Z,1.73
2022-09-10T20:54:19.083Z,1.50
2022-09-10T20:56:46.733Z,1.98
2022-09-10T20:59:17.182Z,1.70
2022-09-10T21:01:46.466Z,1.88
2022-09-10T21:04:23.626Z,1.67
2022-09-10T21:06:51.077Z,1.80
2022-09-10T21:09:18.257Z,1.67
2022-09-10T21:11:45.292Z,1.45
2022-09-10T21:14:12.878Z,1.40
2022-09-10T21:16:42.286Z,1.63
2022-09-10T21:19:16.110Z,1.80
2022-09-10T21:21:49.012Z,1.50
2022-09-10T21:24:22.614Z,1.45
2022-09-10T21:26:51.239Z,1.55
2022-09-10T21:29:21.543Z,1.52
2022-09-10T21:31:50.862Z,1.80
2022-09-10T21:34:19.273Z,1.63
2022-09-10T21:36:49.452Z,1.73
2022-09-10T21:39:19.740Z,1.70
2022-09-10T21:41:49.594Z,2.20
2022-09-10T21:44:21.012Z,1.95
2022-09-10T21:46:49.588Z,1.80
2022-09-10T21:49:20.975Z,1.90
2022-09-10T21:51:50.308Z,2.38
2022-09-10T21:54:26.504Z,1.67
2022-09-10T21:56:53.780Z,1.70
2022-09-10T21:59:22.149Z,1.83
2022-09-10T22:01:49.605Z,1.70
2022-09-10T22:04:22.151Z,1.50
2022-09-10T22:06:52.438Z,1.30
2022-09-10T22:09:20.760Z,1.50
2022-09-10T22:11:51.841Z,1.38
2022-09-10T22:14:26.815Z,1.45
2022-09-10T22:16:56.561Z,1.50
2022-09-10T22:19:26.099Z,1.52
2022-09-10T22:21:54.264Z,1.33
2022-09-10T22:24:22.185Z,1.30
2022-09-10T22:26:49.256Z,1.30
2022-09-10T22:29:20.509Z,1.50
2022-09-10T22:31:49.003Z,1.60
2022-09-10T22:34:19.489Z,1.40
2022-09-10T22:36:47.398Z,1.90
2022-09-10T22:39:21.583Z,1.70
2022-09-10T22:41:50.547Z,1.40
2022-09-10T22:44:22.035Z,1.60
2022-09-10T22:46:50.327Z,1.50
2022-09-10T22:49:17.796Z,1.75
2022-09-10T22:51:45.255Z,1.65
2022-09-10T22:54:16.559Z,1.30
2022-09-10T22:56:44.848Z,1.60
2022-09-10T22:59:14.089Z,1.90
2022-09-10T23:01:47.853Z,1.67
2022-09-10T23:04:16.166Z,1.42
2022-09-10T23:06:43.190Z,1.80
2022-09-10T23:09:16.470Z,2.05
2022-09-10T23:11:45.244Z,1.88
2022-09-10T23:14:19.377Z,2.03
2022-09-10T23:16:51.148Z,1.90
2022-09-10T23:19:23.443Z,1.80
2022-09-10T23:21:54.889Z,2.00
2022-09-10T23:24:25.060Z,1.77
2022-09-10T23:26:53.887Z,1.80
2022-09-10T23:29:23.929Z,1.77
2022-09-10T23:31:53.402Z,2.08
2022-09-10T23:34:24.011Z,2.13
2022-09-10T23:36:53.164Z,1.77
2022-09-10T23:39:26.323Z,1.83
2022-09-10T23:41:57.272Z,1.63
2022-09-10T23:44:26.115Z,1.77
2022-09-10T23:46:57.459Z,1.95
2022-09-10T23:49:24.533Z,2.92
2022-09-10T23:51:51.545Z,2.03
2022-09-10T23:54:18.870Z,1.92
2022-09-10T23:56:49.117Z,2.00
2022-09-10T23:59:16.096Z,2.17
